Almo, Kentucky
Current Conditions -  °F | °C
As of 6:35 AM on Sunday 21 Dec 2014 (Local Time) from KCEY Reporting Station
Clear Clear  
Wind Chill: 25°   Ceiling: Unl
Heat Index: 25°   Visibility: 6mi
Dew Point: 25°   Wind: 3mph
Humidity: 100%   Direction: 80°E
Pressure: 30.23"   Gusts: NA
Location:  36.69°N, 88.28°W
Report Text: KCEY 211235Z AUTO 08003KT 6SM CLR M04/M04 A3023 RMK AO1
Loading
Personal Weather Stations






























Interactive Weather Map New forecast layout! Learn more

10-Day Weather Forecast

Advertisements
Track Severe Weather on mobile